Impacts METAR Board INFO
IDs:

KMKT - Mankato Rgnl, MN, US

Updated at: 1410 UTC 12 Dec 2017
Potential Impact None Slight Moderate High
Time12/02Z 12/03Z 12/04Z 12/05Z 12/06Z 12/07Z 12/08Z 12/09Z 12/10Z 12/11Z 12/12Z 12/13Z 12/14Z
VIS10 10 10 10 10 10 10 10 10 10 10 10
CIG-- -- -- -- -- -- -- -- -- -- -- --
CoverFEWCLRCLRCLRCLRCLRCLRCLRCLRCLRFEWSCT
FltCatVFRVFRVFRVFRVFRVFRVFRVFRVFRVFRVFRVFR
WX------------------------
WDir320320320320320310300310320320300300
WSpd19 14 14 13 13 10 9 10 10 9 8 6
WGst-- -- -- -- -- -- -- -- -- -- -- --
Raw hourly METARs
KMKT 120156Z AUTO 32019KT 10SM FEW029 M05/M09 A3018 RMK AO2 PK WND 33027/0119 SLP237 T10501089 FZRANO
KMKT 120256Z AUTO 32014KT 10SM CLR M07/M09 A3021 RMK AO2 SLP248 T10671094 51023 FZRANO
KMKT 120356Z AUTO 32014KT 10SM CLR M08/M11 A3023 RMK AO2 SLP255 T10831111 FZRANO
KMKT 120456Z AUTO 32013KT 10SM CLR M09/M12 A3024 RMK AO2 SLP259 T10941117 FZRANO
KMKT 120556Z AUTO 32013KT 10SM CLR M10/M13 A3025 RMK AO2 SLP262 T11001128 11022 21100 400281100 51012 FZRANO
KMKT 120656Z AUTO 31010KT 10SM CLR M11/M14 A3025 RMK AO2 SLP263 T11111139 FZRANO
KMKT 120756Z AUTO 30009KT 10SM CLR M12/M14 A3027 RMK AO2 SLP270 T11171144 FZRANO
KMKT 120856Z AUTO 31010KT 10SM CLR M12/M15 A3027 RMK AO2 SLP271 T11221150 53007 FZRANO
KMKT 120956Z AUTO 32010KT 10SM CLR M13/M16 A3027 RMK AO2 SLP270 T11281156 FZRANO
KMKT 121056Z AUTO 32009KT 10SM CLR M13/M16 A3026 RMK AO2 SLP267 T11331156 FZRANO
KMKT 121156Z AUTO 30008KT 10SM FEW080 M13/M16 A3025 RMK AO2 SLP264 T11331161 11100 21133 58008 FZRANO

KMKT 121356Z AUTO 30006KT 10SM SCT070 M13/M16 A3021 RMK AO2 SLP254 T11281156 FZRANO